sensor_id;sensor_type;location;lat;lon;timestamp;P1;durP1;ratioP1;P2;durP2;ratioP2
3337;SDS011;1682;49.286;10.788;2023-05-07T00:01:44;3.70;;;3.50;;
3337;SDS011;1682;49.286;10.788;2023-05-07T00:04:11;3.70;;;3.10;;
3337;SDS011;1682;49.286;10.788;2023-05-07T00:06:39;3.60;;;3.40;;
3337;SDS011;1682;49.286;10.788;2023-05-07T00:09:06;6.40;;;3.33;;
3337;SDS011;1682;49.286;10.788;2023-05-07T00:11:33;10.43;;;7.80;;
3337;SDS011;1682;49.286;10.788;2023-05-07T00:14:01;4.67;;;4.20;;
3337;SDS011;1682;49.286;10.788;2023-05-07T00:16:29;4.23;;;3.83;;
3337;SDS011;1682;49.286;10.788;2023-05-07T00:18:57;5.90;;;4.40;;
3337;SDS011;1682;49.286;10.788;2023-05-07T00:21:25;4.47;;;4.07;;
3337;SDS011;1682;49.286;10.788;2023-05-07T00:23:52;5.07;;;4.40;;
3337;SDS011;1682;49.286;10.788;2023-05-07T00:26:19;5.80;;;4.70;;
3337;SDS011;1682;49.286;10.788;2023-05-07T00:28:46;4.40;;;4.10;;
3337;SDS011;1682;49.286;10.788;2023-05-07T00:31:13;4.90;;;4.50;;
3337;SDS011;1682;49.286;10.788;2023-05-07T00:33:42;5.57;;;5.07;;
3337;SDS011;1682;49.286;10.788;2023-05-07T00:36:09;4.23;;;3.93;;
3337;SDS011;1682;49.286;10.788;2023-05-07T00:38:37;4.80;;;4.50;;
3337;SDS011;1682;49.286;10.788;2023-05-07T00:41:04;6.10;;;5.60;;
3337;SDS011;1682;49.286;10.788;2023-05-07T00:43:31;5.47;;;5.07;;
3337;SDS011;1682;49.286;10.788;2023-05-07T00:45:59;4.13;;;3.93;;
3337;SDS011;1682;49.286;10.788;2023-05-07T00:48:26;4.33;;;4.03;;
3337;SDS011;1682;49.286;10.788;2023-05-07T00:50:55;4.33;;;3.93;;
3337;SDS011;1682;49.286;10.788;2023-05-07T00:53:23;4.70;;;4.27;;
3337;SDS011;1682;49.286;10.788;2023-05-07T00:55:50;4.73;;;4.30;;
3337;SDS011;1682;49.286;10.788;2023-05-07T00:58:17;4.87;;;4.47;;
3337;SDS011;1682;49.286;10.788;2023-05-07T01:00:45;4.70;;;4.40;;
3337;SDS011;1682;49.286;10.788;2023-05-07T01:03:12;4.40;;;4.07;;
3337;SDS011;1682;49.286;10.788;2023-05-07T01:05:39;3.70;;;3.50;;
3337;SDS011;1682;49.286;10.788;2023-05-07T01:08:08;4.57;;;4.17;;
3337;SDS011;1682;49.286;10.788;2023-05-07T01:10:35;4.53;;;4.23;;
3337;SDS011;1682;49.286;10.788;2023-05-07T01:13:02;3.83;;;3.63;;
3337;SDS011;1682;49.286;10.788;2023-05-07T01:15:30;4.27;;;3.50;;
3337;SDS011;1682;49.286;10.788;2023-05-07T01:17:57;3.90;;;3.67;;
3337;SDS011;1682;49.286;10.788;2023-05-07T01:20:24;3.43;;;3.13;;
3337;SDS011;1682;49.286;10.788;2023-05-07T01:22:54;6.43;;;4.20;;
3337;SDS011;1682;49.286;10.788;2023-05-07T01:25:21;3.57;;;3.33;;
3337;SDS011;1682;49.286;10.788;2023-05-07T01:27:48;4.03;;;3.73;;
3337;SDS011;1682;49.286;10.788;2023-05-07T01:30:16;4.10;;;3.73;;
3337;SDS011;1682;49.286;10.788;2023-05-07T01:32:44;4.30;;;4.10;;
3337;SDS011;1682;49.286;10.788;2023-05-07T01:35:15;3.83;;;3.53;;
3337;SDS011;1682;49.286;10.788;2023-05-07T01:37:45;4.30;;;3.80;;
3337;SDS011;1682;49.286;10.788;2023-05-07T01:40:14;4.03;;;3.73;;
3337;SDS011;1682;49.286;10.788;2023-05-07T01:42:42;4.90;;;4.50;;
3337;SDS011;1682;49.286;10.788;2023-05-07T01:45:10;4.27;;;3.97;;
3337;SDS011;1682;49.286;10.788;2023-05-07T01:47:37;4.13;;;3.77;;
3337;SDS011;1682;49.286;10.788;2023-05-07T01:50:06;5.00;;;3.80;;
3337;SDS011;1682;49.286;10.788;2023-05-07T01:52:37;5.10;;;4.60;;
3337;SDS011;1682;49.286;10.788;2023-05-07T01:55:05;4.60;;;4.30;;
3337;SDS011;1682;49.286;10.788;2023-05-07T01:57:34;4.50;;;4.20;;
3337;SDS011;1682;49.286;10.788;2023-05-07T02:00:01;4.37;;;4.07;;
3337;SDS011;1682;49.286;10.788;2023-05-07T02:02:31;4.30;;;4.00;;
3337;SDS011;1682;49.286;10.788;2023-05-07T02:04:59;3.77;;;3.57;;
3337;SDS011;1682;49.286;10.788;2023-05-07T02:07:27;4.30;;;4.00;;
3337;SDS011;1682;49.286;10.788;2023-05-07T02:09:54;5.00;;;4.17;;
3337;SDS011;1682;49.286;10.788;2023-05-07T02:12:21;5.83;;;5.20;;
3337;SDS011;1682;49.286;10.788;2023-05-07T02:14:50;5.03;;;4.73;;
3337;SDS011;1682;49.286;10.788;2023-05-07T02:17:17;4.97;;;4.60;;
3337;SDS011;1682;49.286;10.788;2023-05-07T02:19:45;4.40;;;4.10;;
3337;SDS011;1682;49.286;10.788;2023-05-07T02:22:12;4.63;;;4.23;;
3337;SDS011;1682;49.286;10.788;2023-05-07T02:24:39;4.30;;;4.00;;
3337;SDS011;1682;49.286;10.788;2023-05-07T02:27:06;5.60;;;5.10;;
3337;SDS011;1682;49.286;10.788;2023-05-07T02:29:33;4.63;;;4.33;;
3337;SDS011;1682;49.286;10.788;2023-05-07T02:32:02;4.70;;;4.40;;
3337;SDS011;1682;49.286;10.788;2023-05-07T02:34:29;4.63;;;4.30;;
3337;SDS011;1682;49.286;10.788;2023-05-07T02:36:57;4.80;;;4.40;;
3337;SDS011;1682;49.286;10.788;2023-05-07T02:39:24;5.93;;;4.93;;
3337;SDS011;1682;49.286;10.788;2023-05-07T02:41:51;5.00;;;4.40;;
3337;SDS011;1682;49.286;10.788;2023-05-07T02:44:18;4.50;;;4.20;;
3337;SDS011;1682;49.286;10.788;2023-05-07T02:46:45;5.40;;;5.10;;
3337;SDS011;1682;49.286;10.788;2023-05-07T02:49:14;4.97;;;4.57;;
3337;SDS011;1682;49.286;10.788;2023-05-07T02:51:41;5.20;;;4.80;;
3337;SDS011;1682;49.286;10.788;2023-05-07T02:54:08;4.70;;;4.30;;
3337;SDS011;1682;49.286;10.788;2023-05-07T02:56:35;5.37;;;4.97;;
3337;SDS011;1682;49.286;10.788;2023-05-07T02:59:03;6.67;;;6.17;;
3337;SDS011;1682;49.286;10.788;2023-05-07T03:01:30;5.40;;;4.27;;
3337;SDS011;1682;49.286;10.788;2023-05-07T03:03:57;5.40;;;5.00;;
3337;SDS011;1682;49.286;10.788;2023-05-07T03:06:26;4.83;;;4.53;;
3337;SDS011;1682;49.286;10.788;2023-05-07T03:08:54;5.67;;;5.17;;
3337;SDS011;1682;49.286;10.788;2023-05-07T03:11:21;5.67;;;5.10;;
3337;SDS011;1682;49.286;10.788;2023-05-07T03:13:48;5.90;;;5.40;;
3337;SDS011;1682;49.286;10.788;2023-05-07T03:16:15;5.80;;;5.40;;
3337;SDS011;1682;49.286;10.788;2023-05-07T03:18:42;5.10;;;4.77;;
3337;SDS011;1682;49.286;10.788;2023-05-07T03:21:10;5.73;;;5.27;;
3337;SDS011;1682;49.286;10.788;2023-05-07T03:23:38;8.63;;;7.80;;
3337;SDS011;1682;49.286;10.788;2023-05-07T03:26:05;6.03;;;5.40;;
3337;SDS011;1682;49.286;10.788;2023-05-07T03:28:33;10.90;;;8.80;;
3337;SDS011;1682;49.286;10.788;2023-05-07T03:31:00;9.20;;;8.20;;
3337;SDS011;1682;49.286;10.788;2023-05-07T03:33:27;9.37;;;8.37;;
3337;SDS011;1682;49.286;10.788;2023-05-07T03:35:55;7.03;;;6.43;;
3337;SDS011;1682;49.286;10.788;2023-05-07T03:38:22;9.37;;;6.30;;
3337;SDS011;1682;49.286;10.788;2023-05-07T03:40:50;6.93;;;6.33;;
3337;SDS011;1682;49.286;10.788;2023-05-07T03:43:18;6.03;;;5.50;;
3337;SDS011;1682;49.286;10.788;2023-05-07T03:45:48;5.90;;;5.50;;
3337;SDS011;1682;49.286;10.788;2023-05-07T03:48:15;6.27;;;5.87;;
3337;SDS011;1682;49.286;10.788;2023-05-07T03:50:42;9.67;;;7.17;;
3337;SDS011;1682;49.286;10.788;2023-05-07T03:53:09;11.30;;;8.63;;
3337;SDS011;1682;49.286;10.788;2023-05-07T03:55:36;9.90;;;6.60;;
3337;SDS011;1682;49.286;10.788;2023-05-07T03:58:05;5.93;;;5.43;;
3337;SDS011;1682;49.286;10.788;2023-05-07T04:00:32;6.23;;;5.73;;
3337;SDS011;1682;49.286;10.788;2023-05-07T04:03:03;5.70;;;5.17;;
3337;SDS011;1682;49.286;10.788;2023-05-07T04:05:30;5.80;;;5.30;;
3337;SDS011;1682;49.286;10.788;2023-05-07T04:07:57;5.30;;;4.90;;
3337;SDS011;1682;49.286;10.788;2023-05-07T04:10:24;5.43;;;5.03;;
3337;SDS011;1682;49.286;10.788;2023-05-07T04:12:53;5.90;;;5.30;;
3337;SDS011;1682;49.286;10.788;2023-05-07T04:15:21;5.27;;;4.83;;
3337;SDS011;1682;49.286;10.788;2023-05-07T04:17:48;6.80;;;5.80;;
3337;SDS011;1682;49.286;10.788;2023-05-07T04:20:16;9.10;;;6.27;;
3337;SDS011;1682;49.286;10.788;2023-05-07T04:22:43;5.57;;;5.07;;
3337;SDS011;1682;49.286;10.788;2023-05-07T04:25:11;6.43;;;5.97;;
3337;SDS011;1682;49.286;10.788;2023-05-07T04:27:38;9.93;;;5.80;;
3337;SDS011;1682;49.286;10.788;2023-05-07T04:30:06;7.40;;;6.87;;
3337;SDS011;1682;49.286;10.788;2023-05-07T04:32:35;6.90;;;6.20;;
3337;SDS011;1682;49.286;10.788;2023-05-07T04:35:02;6.10;;;5.70;;
3337;SDS011;1682;49.286;10.788;2023-05-07T04:37:31;5.97;;;5.40;;
3337;SDS011;1682;49.286;10.788;2023-05-07T04:39:58;5.90;;;5.33;;
3337;SDS011;1682;49.286;10.788;2023-05-07T04:42:27;5.43;;;5.03;;
3337;SDS011;1682;49.286;10.788;2023-05-07T04:44:55;6.37;;;5.87;;
3337;SDS011;1682;49.286;10.788;2023-05-07T04:47:22;5.97;;;5.43;;
3337;SDS011;1682;49.286;10.788;2023-05-07T04:49:50;5.47;;;5.17;;
3337;SDS011;1682;49.286;10.788;2023-05-07T04:52:18;5.30;;;4.90;;
3337;SDS011;1682;49.286;10.788;2023-05-07T04:54:45;4.90;;;4.60;;
3337;SDS011;1682;49.286;10.788;2023-05-07T04:57:12;5.73;;;5.33;;
3337;SDS011;1682;49.286;10.788;2023-05-07T04:59:39;7.13;;;5.80;;
3337;SDS011;1682;49.286;10.788;2023-05-07T05:02:06;6.10;;;5.23;;
3337;SDS011;1682;49.286;10.788;2023-05-07T05:04:34;5.43;;;5.03;;
3337;SDS011;1682;49.286;10.788;2023-05-07T05:07:03;5.90;;;5.47;;
3337;SDS011;1682;49.286;10.788;2023-05-07T05:09:30;5.70;;;5.20;;
3337;SDS011;1682;49.286;10.788;2023-05-07T05:11:57;8.43;;;6.17;;
3337;SDS011;1682;49.286;10.788;2023-05-07T05:14:24;6.40;;;5.80;;
3337;SDS011;1682;49.286;10.788;2023-05-07T05:16:52;6.07;;;5.47;;
3337;SDS011;1682;49.286;10.788;2023-05-07T05:19:19;5.73;;;5.33;;
3337;SDS011;1682;49.286;10.788;2023-05-07T05:21:46;6.23;;;5.70;;
3337;SDS011;1682;49.286;10.788;2023-05-07T05:24:14;6.23;;;5.77;;
3337;SDS011;1682;49.286;10.788;2023-05-07T05:26:41;5.90;;;5.37;;
3337;SDS011;1682;49.286;10.788;2023-05-07T05:29:09;5.30;;;4.90;;
3337;SDS011;1682;49.286;10.788;2023-05-07T05:31:36;6.17;;;5.70;;
3337;SDS011;1682;49.286;10.788;2023-05-07T05:34:03;5.90;;;5.50;;
3337;SDS011;1682;49.286;10.788;2023-05-07T05:36:30;5.67;;;5.17;;
3337;SDS011;1682;49.286;10.788;2023-05-07T05:38:57;5.27;;;4.77;;
3337;SDS011;1682;49.286;10.788;2023-05-07T05:41:26;7.17;;;5.90;;
3337;SDS011;1682;49.286;10.788;2023-05-07T05:43:53;8.90;;;7.07;;
3337;SDS011;1682;49.286;10.788;2023-05-07T05:46:21;6.30;;;5.70;;
3337;SDS011;1682;49.286;10.788;2023-05-07T05:48:48;7.47;;;6.87;;
3337;SDS011;1682;49.286;10.788;2023-05-07T05:51:15;6.33;;;5.83;;
3337;SDS011;1682;49.286;10.788;2023-05-07T05:53:42;6.93;;;6.33;;
3337;SDS011;1682;49.286;10.788;2023-05-07T05:56:10;11.20;;;8.53;;
3337;SDS011;1682;49.286;10.788;2023-05-07T05:58:38;8.17;;;7.37;;
3337;SDS011;1682;49.286;10.788;2023-05-07T06:01:06;7.70;;;6.90;;
3337;SDS011;1682;49.286;10.788;2023-05-07T06:03:33;10.73;;;8.23;;
3337;SDS011;1682;49.286;10.788;2023-05-07T06:06:00;8.40;;;7.60;;
3337;SDS011;1682;49.286;10.788;2023-05-07T06:08:28;9.23;;;8.00;;
3337;SDS011;1682;49.286;10.788;2023-05-07T06:10:56;8.07;;;7.37;;
3337;SDS011;1682;49.286;10.788;2023-05-07T06:13:23;8.27;;;7.67;;
3337;SDS011;1682;49.286;10.788;2023-05-07T06:15:52;9.13;;;8.30;;
3337;SDS011;1682;49.286;10.788;2023-05-07T06:18:19;10.13;;;9.13;;
3337;SDS011;1682;49.286;10.788;2023-05-07T06:20:46;8.20;;;7.47;;
3337;SDS011;1682;49.286;10.788;2023-05-07T06:23:14;9.20;;;8.37;;
3337;SDS011;1682;49.286;10.788;2023-05-07T06:25:41;8.83;;;8.13;;
3337;SDS011;1682;49.286;10.788;2023-05-07T06:28:08;8.20;;;7.40;;
3337;SDS011;1682;49.286;10.788;2023-05-07T06:30:36;8.90;;;8.10;;
3337;SDS011;1682;49.286;10.788;2023-05-07T06:33:05;8.27;;;7.57;;
3337;SDS011;1682;49.286;10.788;2023-05-07T06:35:32;9.63;;;8.80;;
3337;SDS011;1682;49.286;10.788;2023-05-07T06:37:59;8.70;;;7.80;;
3337;SDS011;1682;49.286;10.788;2023-05-07T06:40:26;8.53;;;7.73;;
3337;SDS011;1682;49.286;10.788;2023-05-07T06:42:53;9.20;;;8.30;;
3337;SDS011;1682;49.286;10.788;2023-05-07T06:45:24;8.63;;;7.83;;
3337;SDS011;1682;49.286;10.788;2023-05-07T06:47:51;10.20;;;7.90;;
3337;SDS011;1682;49.286;10.788;2023-05-07T06:50:20;8.20;;;7.40;;
3337;SDS011;1682;49.286;10.788;2023-05-07T06:52:47;8.53;;;7.80;;
3337;SDS011;1682;49.286;10.788;2023-05-07T06:55:14;8.30;;;7.60;;
3337;SDS011;1682;49.286;10.788;2023-05-07T06:57:42;9.20;;;8.30;;
3337;SDS011;1682;49.286;10.788;2023-05-07T07:00:09;8.90;;;7.90;;
3337;SDS011;1682;49.286;10.788;2023-05-07T07:02:36;8.80;;;7.03;;
3337;SDS011;1682;49.286;10.788;2023-05-07T07:05:04;9.00;;;7.33;;
3337;SDS011;1682;49.286;10.788;2023-05-07T07:07:33;8.30;;;7.50;;
3337;SDS011;1682;49.286;10.788;2023-05-07T07:10:01;6.80;;;6.20;;
3337;SDS011;1682;49.286;10.788;2023-05-07T07:12:29;7.37;;;6.77;;
3337;SDS011;1682;49.286;10.788;2023-05-07T07:14:57;7.47;;;6.97;;
3337;SDS011;1682;49.286;10.788;2023-05-07T07:17:24;7.13;;;6.43;;
3337;SDS011;1682;49.286;10.788;2023-05-07T07:19:52;7.73;;;6.70;;
3337;SDS011;1682;49.286;10.788;2023-05-07T07:22:19;7.90;;;7.20;;
3337;SDS011;1682;49.286;10.788;2023-05-07T07:24:48;11.23;;;7.90;;
3337;SDS011;1682;49.286;10.788;2023-05-07T07:27:16;7.35;;;6.75;;
3337;SDS011;1682;49.286;10.788;2023-05-07T07:29:43;8.27;;;7.40;;
3337;SDS011;1682;49.286;10.788;2023-05-07T07:32:11;7.37;;;6.57;;
3337;SDS011;1682;49.286;10.788;2023-05-07T07:34:38;7.67;;;6.90;;
3337;SDS011;1682;49.286;10.788;2023-05-07T07:37:05;7.63;;;6.93;;
3337;SDS011;1682;49.286;10.788;2023-05-07T07:39:32;7.30;;;6.70;;
3337;SDS011;1682;49.286;10.788;2023-05-07T07:42:01;8.70;;;7.90;;
3337;SDS011;1682;49.286;10.788;2023-05-07T07:44:28;10.17;;;9.17;;
3337;SDS011;1682;49.286;10.788;2023-05-07T07:46:56;8.10;;;7.40;;
3337;SDS011;1682;49.286;10.788;2023-05-07T07:49:23;8.00;;;7.30;;
3337;SDS011;1682;49.286;10.788;2023-05-07T07:51:50;8.20;;;7.17;;
3337;SDS011;1682;49.286;10.788;2023-05-07T07:54:18;8.23;;;7.50;;
3337;SDS011;1682;49.286;10.788;2023-05-07T07:56:45;9.37;;;8.50;;
3337;SDS011;1682;49.286;10.788;2023-05-07T07:59:14;9.43;;;8.53;;
3337;SDS011;1682;49.286;10.788;2023-05-07T08:01:43;8.23;;;7.43;;
3337;SDS011;1682;49.286;10.788;2023-05-07T08:04:11;9.10;;;8.20;;
3337;SDS011;1682;49.286;10.788;2023-05-07T08:06:38;8.30;;;7.60;;
3337;SDS011;1682;49.286;10.788;2023-05-07T08:09:06;9.07;;;7.97;;
3337;SDS011;1682;49.286;10.788;2023-05-07T08:11:33;11.10;;;8.10;;
3337;SDS011;1682;49.286;10.788;2023-05-07T08:14:00;9.40;;;8.50;;
3337;SDS011;1682;49.286;10.788;2023-05-07T08:16:29;13.53;;;9.77;;
3337;SDS011;1682;49.286;10.788;2023-05-07T08:18:57;9.03;;;8.23;;
3337;SDS011;1682;49.286;10.788;2023-05-07T08:21:24;10.47;;;9.47;;
3337;SDS011;1682;49.286;10.788;2023-05-07T08:23:51;9.30;;;8.20;;
3337;SDS011;1682;49.286;10.788;2023-05-07T08:26:18;8.30;;;7.50;;
3337;SDS011;1682;49.286;10.788;2023-05-07T08:28:46;7.93;;;7.23;;
3337;SDS011;1682;49.286;10.788;2023-05-07T08:31:13;8.07;;;7.37;;
3337;SDS011;1682;49.286;10.788;2023-05-07T08:33:41;9.07;;;8.07;;
3337;SDS011;1682;49.286;10.788;2023-05-07T08:36:09;8.27;;;7.67;;
3337;SDS011;1682;49.286;10.788;2023-05-07T08:38:36;8.13;;;7.43;;
3337;SDS011;1682;49.286;10.788;2023-05-07T08:41:05;7.70;;;7.10;;
3337;SDS011;1682;49.286;10.788;2023-05-07T08:43:33;7.87;;;7.20;;
3337;SDS011;1682;49.286;10.788;2023-05-07T08:46:03;7.80;;;7.10;;
3337;SDS011;1682;49.286;10.788;2023-05-07T08:48:31;7.00;;;6.50;;
3337;SDS011;1682;49.286;10.788;2023-05-07T08:51:00;8.73;;;7.93;;
3337;SDS011;1682;49.286;10.788;2023-05-07T08:53:30;9.70;;;8.80;;
3337;SDS011;1682;49.286;10.788;2023-05-07T08:55:58;7.90;;;7.20;;
3337;SDS011;1682;49.286;10.788;2023-05-07T08:58:25;9.10;;;8.40;;
3337;SDS011;1682;49.286;10.788;2023-05-07T09:00:52;8.23;;;7.53;;
3337;SDS011;1682;49.286;10.788;2023-05-07T09:03:20;7.20;;;6.60;;
3337;SDS011;1682;49.286;10.788;2023-05-07T09:05:48;6.23;;;5.80;;
3337;SDS011;1682;49.286;10.788;2023-05-07T09:08:16;11.03;;;6.87;;
3337;SDS011;1682;49.286;10.788;2023-05-07T09:10:44;8.77;;;8.00;;
3337;SDS011;1682;49.286;10.788;2023-05-07T09:13:11;6.60;;;6.00;;
3337;SDS011;1682;49.286;10.788;2023-05-07T09:15:39;7.50;;;6.90;;
3337;SDS011;1682;49.286;10.788;2023-05-07T09:18:06;7.93;;;7.20;;
3337;SDS011;1682;49.286;10.788;2023-05-07T09:20:33;7.87;;;6.83;;
3337;SDS011;1682;49.286;10.788;2023-05-07T09:23:01;8.30;;;7.60;;
3337;SDS011;1682;49.286;10.788;2023-05-07T09:25:29;7.70;;;6.87;;
3337;SDS011;1682;49.286;10.788;2023-05-07T09:27:57;7.33;;;6.77;;
3337;SDS011;1682;49.286;10.788;2023-05-07T09:30:27;7.00;;;6.40;;
3337;SDS011;1682;49.286;10.788;2023-05-07T09:32:54;6.63;;;6.13;;
3337;SDS011;1682;49.286;10.788;2023-05-07T09:35:21;7.03;;;6.43;;
3337;SDS011;1682;49.286;10.788;2023-05-07T09:37:50;7.37;;;6.67;;
3337;SDS011;1682;49.286;10.788;2023-05-07T09:40:21;8.57;;;6.33;;
3337;SDS011;1682;49.286;10.788;2023-05-07T09:42:50;9.97;;;7.20;;
3337;SDS011;1682;49.286;10.788;2023-05-07T09:45:21;6.70;;;6.10;;
3337;SDS011;1682;49.286;10.788;2023-05-07T09:47:48;11.13;;;7.40;;
3337;SDS011;1682;49.286;10.788;2023-05-07T09:50:16;8.30;;;7.40;;
3337;SDS011;1682;49.286;10.788;2023-05-07T09:52:45;7.33;;;6.63;;
3337;SDS011;1682;49.286;10.788;2023-05-07T09:55:12;7.37;;;6.87;;
3337;SDS011;1682;49.286;10.788;2023-05-07T09:57:39;7.77;;;7.07;;
3337;SDS011;1682;49.286;10.788;2023-05-07T10:00:09;8.70;;;6.97;;
3337;SDS011;1682;49.286;10.788;2023-05-07T10:02:37;7.80;;;7.10;;
3337;SDS011;1682;49.286;10.788;2023-05-07T10:05:11;6.67;;;6.17;;
3337;SDS011;1682;49.286;10.788;2023-05-07T10:07:39;6.50;;;5.90;;
3337;SDS011;1682;49.286;10.788;2023-05-07T10:10:07;6.23;;;5.63;;
3337;SDS011;1682;49.286;10.788;2023-05-07T10:12:34;7.43;;;5.90;;
3337;SDS011;1682;49.286;10.788;2023-05-07T10:15:05;7.00;;;6.30;;
3337;SDS011;1682;49.286;10.788;2023-05-07T10:17:34;6.10;;;5.50;;
3337;SDS011;1682;49.286;10.788;2023-05-07T10:20:02;5.87;;;5.40;;
3337;SDS011;1682;49.286;10.788;2023-05-07T10:22:30;5.73;;;5.23;;
3337;SDS011;1682;49.286;10.788;2023-05-07T10:24:59;5.53;;;5.10;;
3337;SDS011;1682;49.286;10.788;2023-05-07T10:27:29;5.00;;;4.70;;
3337;SDS011;1682;49.286;10.788;2023-05-07T10:29:59;5.93;;;5.43;;
3337;SDS011;1682;49.286;10.788;2023-05-07T10:32:39;6.37;;;5.77;;
3337;SDS011;1682;49.286;10.788;2023-05-07T10:35:09;5.57;;;5.03;;
3337;SDS011;1682;49.286;10.788;2023-05-07T10:37:37;7.20;;;6.63;;
3337;SDS011;1682;49.286;10.788;2023-05-07T10:40:05;7.10;;;5.70;;
3337;SDS011;1682;49.286;10.788;2023-05-07T10:42:33;6.00;;;5.60;;
3337;SDS011;1682;49.286;10.788;2023-05-07T10:45:11;5.00;;;4.70;;
3337;SDS011;1682;49.286;10.788;2023-05-07T10:50:23;4.90;;;4.60;;
3337;SDS011;1682;49.286;10.788;2023-05-07T10:55:36;3.80;;;3.33;;
3337;SDS011;1682;49.286;10.788;2023-05-07T10:58:22;6.67;;;4.00;;
3337;SDS011;1682;49.286;10.788;2023-05-07T11:00:55;3.10;;;2.90;;
3337;SDS011;1682;49.286;10.788;2023-05-07T11:03:23;3.67;;;3.23;;
3337;SDS011;1682;49.286;10.788;2023-05-07T11:06:08;3.80;;;3.50;;
3337;SDS011;1682;49.286;10.788;2023-05-07T11:08:55;3.07;;;2.87;;
3337;SDS011;1682;49.286;10.788;2023-05-07T11:14:08;4.53;;;4.23;;
3337;SDS011;1682;49.286;10.788;2023-05-07T11:16:35;4.40;;;3.53;;
3337;SDS011;1682;49.286;10.788;2023-05-07T11:19:03;4.40;;;4.10;;
3337;SDS011;1682;49.286;10.788;2023-05-07T11:21:36;3.67;;;3.47;;
3337;SDS011;1682;49.286;10.788;2023-05-07T11:24:03;3.50;;;3.20;;
3337;SDS011;1682;49.286;10.788;2023-05-07T11:26:32;3.83;;;3.43;;
3337;SDS011;1682;49.286;10.788;2023-05-07T11:29:10;2.57;;;2.37;;
3337;SDS011;1682;49.286;10.788;2023-05-07T11:31:37;2.80;;;2.60;;
3337;SDS011;1682;49.286;10.788;2023-05-07T11:34:05;3.20;;;2.90;;
3337;SDS011;1682;49.286;10.788;2023-05-07T11:36:32;3.43;;;3.13;;
3337;SDS011;1682;49.286;10.788;2023-05-07T11:39:01;2.57;;;2.47;;
3337;SDS011;1682;49.286;10.788;2023-05-07T11:41:35;3.53;;;3.23;;
3337;SDS011;1682;49.286;10.788;2023-05-07T11:44:02;2.13;;;1.73;;
3337;SDS011;1682;49.286;10.788;2023-05-07T11:46:30;1.70;;;1.60;;
3337;SDS011;1682;49.286;10.788;2023-05-07T11:48:57;3.73;;;3.37;;
3337;SDS011;1682;49.286;10.788;2023-05-07T11:51:24;2.90;;;2.70;;
3337;SDS011;1682;49.286;10.788;2023-05-07T11:53:55;2.00;;;1.70;;
3337;SDS011;1682;49.286;10.788;2023-05-07T11:56:23;1.83;;;1.73;;
3337;SDS011;1682;49.286;10.788;2023-05-07T11:58:51;2.10;;;1.90;;
3337;SDS011;1682;49.286;10.788;2023-05-07T12:01:18;2.28;;;2.17;;
3337;SDS011;1682;49.286;10.788;2023-05-07T12:03:45;1.65;;;1.55;;
3337;SDS011;1682;49.286;10.788;2023-05-07T12:06:13;2.20;;;2.10;;
3337;SDS011;1682;49.286;10.788;2023-05-07T12:08:41;2.13;;;2.03;;
3337;SDS011;1682;49.286;10.788;2023-05-07T12:11:09;2.83;;;1.80;;
3337;SDS011;1682;49.286;10.788;2023-05-07T12:13:38;5.00;;;2.10;;
3337;SDS011;1682;49.286;10.788;2023-05-07T12:16:05;2.65;;;2.08;;
3337;SDS011;1682;49.286;10.788;2023-05-07T12:18:34;2.10;;;1.88;;
3337;SDS011;1682;49.286;10.788;2023-05-07T12:21:02;1.73;;;1.63;;
3337;SDS011;1682;49.286;10.788;2023-05-07T12:23:30;1.90;;;1.80;;
3337;SDS011;1682;49.286;10.788;2023-05-07T12:25:58;5.78;;;4.00;;
3337;SDS011;1682;49.286;10.788;2023-05-07T12:28:26;3.40;;;1.80;;
3337;SDS011;1682;49.286;10.788;2023-05-07T12:30:54;5.32;;;3.10;;
3337;SDS011;1682;49.286;10.788;2023-05-07T12:33:23;1.70;;;1.60;;
3337;SDS011;1682;49.286;10.788;2023-05-07T12:35:53;2.35;;;2.22;;
3337;SDS011;1682;49.286;10.788;2023-05-07T12:38:21;1.58;;;1.48;;
3337;SDS011;1682;49.286;10.788;2023-05-07T12:40:49;2.25;;;2.05;;
3337;SDS011;1682;49.286;10.788;2023-05-07T12:43:17;3.38;;;1.23;;
3337;SDS011;1682;49.286;10.788;2023-05-07T12:45:44;1.30;;;1.30;;
3337;SDS011;1682;49.286;10.788;2023-05-07T12:48:13;1.48;;;1.48;;
3337;SDS011;1682;49.286;10.788;2023-05-07T12:50:40;1.40;;;1.30;;
3337;SDS011;1682;49.286;10.788;2023-05-07T12:53:08;1.85;;;1.75;;
3337;SDS011;1682;49.286;10.788;2023-05-07T12:55:42;1.52;;;1.17;;
3337;SDS011;1682;49.286;10.788;2023-05-07T12:58:16;1.40;;;1.30;;
3337;SDS011;1682;49.286;10.788;2023-05-07T13:00:43;1.40;;;1.30;;
3337;SDS011;1682;49.286;10.788;2023-05-07T13:03:11;1.00;;;1.00;;
3337;SDS011;1682;49.286;10.788;2023-05-07T13:05:40;1.00;;;1.00;;
3337;SDS011;1682;49.286;10.788;2023-05-07T13:08:07;1.13;;;1.13;;
3337;SDS011;1682;49.286;10.788;2023-05-07T13:10:34;1.00;;;1.00;;
3337;SDS011;1682;49.286;10.788;2023-05-07T13:13:02;0.93;;;0.93;;
3337;SDS011;1682;49.286;10.788;2023-05-07T13:15:29;1.30;;;1.20;;
3337;SDS011;1682;49.286;10.788;2023-05-07T13:17:56;1.60;;;1.50;;
3337;SDS011;1682;49.286;10.788;2023-05-07T13:20:24;1.30;;;1.27;;
3337;SDS011;1682;49.286;10.788;2023-05-07T13:22:52;1.00;;;0.90;;
3337;SDS011;1682;49.286;10.788;2023-05-07T13:25:20;1.48;;;1.40;;
3337;SDS011;1682;49.286;10.788;2023-05-07T13:27:47;1.35;;;1.25;;
3337;SDS011;1682;49.286;10.788;2023-05-07T13:30:14;1.20;;;1.10;;
3337;SDS011;1682;49.286;10.788;2023-05-07T13:32:41;0.80;;;0.80;;
3337;SDS011;1682;49.286;10.788;2023-05-07T13:35:09;1.20;;;1.10;;
3337;SDS011;1682;49.286;10.788;2023-05-07T13:37:36;1.20;;;1.10;;
3337;SDS011;1682;49.286;10.788;2023-05-07T13:40:05;1.60;;;1.50;;
3337;SDS011;1682;49.286;10.788;2023-05-07T13:42:33;3.58;;;1.65;;
3337;SDS011;1682;49.286;10.788;2023-05-07T13:45:00;3.58;;;3.20;;
3337;SDS011;1682;49.286;10.788;2023-05-07T13:47:29;1.13;;;1.13;;
3337;SDS011;1682;49.286;10.788;2023-05-07T13:49:56;2.50;;;2.30;;
3337;SDS011;1682;49.286;10.788;2023-05-07T13:52:23;2.30;;;2.20;;
3337;SDS011;1682;49.286;10.788;2023-05-07T13:54:50;1.88;;;1.67;;
3337;SDS011;1682;49.286;10.788;2023-05-07T13:57:19;1.30;;;1.30;;
3337;SDS011;1682;49.286;10.788;2023-05-07T13:59:46;1.30;;;1.10;;
3337;SDS011;1682;49.286;10.788;2023-05-07T14:02:14;1.13;;;1.02;;
3337;SDS011;1682;49.286;10.788;2023-05-07T14:04:41;1.67;;;1.58;;
3337;SDS011;1682;49.286;10.788;2023-05-07T14:07:08;1.00;;;1.00;;
3337;SDS011;1682;49.286;10.788;2023-05-07T14:09:35;1.58;;;1.48;;
3337;SDS011;1682;49.286;10.788;2023-05-07T14:12:03;1.55;;;1.40;;
3337;SDS011;1682;49.286;10.788;2023-05-07T14:14:31;2.05;;;1.85;;
3337;SDS011;1682;49.286;10.788;2023-05-07T14:16:59;2.05;;;1.73;;
3337;SDS011;1682;49.286;10.788;2023-05-07T14:19:26;1.40;;;1.30;;
3337;SDS011;1682;49.286;10.788;2023-05-07T14:21:53;1.42;;;1.33;;
3337;SDS011;1682;49.286;10.788;2023-05-07T14:24:20;1.50;;;1.40;;
3337;SDS011;1682;49.286;10.788;2023-05-07T14:26:48;1.40;;;1.40;;
3337;SDS011;1682;49.286;10.788;2023-05-07T14:29:16;1.98;;;1.88;;
3337;SDS011;1682;49.286;10.788;2023-05-07T14:31:50;3.20;;;1.70;;
3337;SDS011;1682;49.286;10.788;2023-05-07T14:34:18;1.60;;;1.50;;
3337;SDS011;1682;49.286;10.788;2023-05-07T14:36:45;1.70;;;1.60;;
3337;SDS011;1682;49.286;10.788;2023-05-07T14:39:12;2.13;;;1.92;;
3337;SDS011;1682;49.286;10.788;2023-05-07T14:41:39;2.00;;;1.90;;
3337;SDS011;1682;49.286;10.788;2023-05-07T14:44:07;1.60;;;1.50;;
3337;SDS011;1682;49.286;10.788;2023-05-07T14:46:34;1.83;;;1.73;;
3337;SDS011;1682;49.286;10.788;2023-05-07T14:49:03;1.60;;;1.50;;
3337;SDS011;1682;49.286;10.788;2023-05-07T14:51:30;2.13;;;2.03;;
3337;SDS011;1682;49.286;10.788;2023-05-07T14:53:58;2.57;;;2.37;;
3337;SDS011;1682;49.286;10.788;2023-05-07T14:56:25;2.00;;;1.90;;
3337;SDS011;1682;49.286;10.788;2023-05-07T14:58:52;2.27;;;2.17;;
3337;SDS011;1682;49.286;10.788;2023-05-07T15:01:20;2.30;;;2.20;;
3337;SDS011;1682;49.286;10.788;2023-05-07T15:03:47;2.37;;;2.00;;
3337;SDS011;1682;49.286;10.788;2023-05-07T15:06:16;2.10;;;2.00;;
3337;SDS011;1682;49.286;10.788;2023-05-07T15:08:43;1.60;;;1.50;;
3337;SDS011;1682;49.286;10.788;2023-05-07T15:11:10;2.30;;;2.10;;
3337;SDS011;1682;49.286;10.788;2023-05-07T15:13:38;2.70;;;2.20;;